createdAt,value
2023-01-18T00:00:04.990Z,1083.6040
2023-01-18T00:00:16.207Z,1081.8480
2023-01-18T00:00:27.392Z,1081.8480
2023-01-18T00:00:38.626Z,1078.3521
2023-01-18T00:00:49.758Z,1081.8480
2023-01-18T00:01:00.792Z,1086.2490
2023-01-18T00:01:11.843Z,1080.9720
2023-01-18T00:01:23.041Z,1080.9720
2023-01-18T00:01:34.268Z,1080.0970
2023-01-18T00:01:45.476Z,1081.8480
2023-01-18T00:01:56.701Z,1076.6130
2023-01-18T00:02:07.838Z,1081.8480
2023-01-18T00:02:19.049Z,1084.4840
2023-01-18T00:02:30.086Z,1081.8480
2023-01-18T00:02:41.143Z,1075.7450
2023-01-18T00:02:52.382Z,1078.3521
2023-01-18T00:03:03.539Z,1076.6130
2023-01-18T00:03:14.742Z,1074.8790
2023-01-18T00:03:25.943Z,1074.0140
2023-01-18T00:03:37.144Z,1080.0970
2023-01-18T00:03:48.328Z,1078.3521
2023-01-18T00:03:59.523Z,1080.0970
2023-01-18T00:04:10.724Z,1077.4821
2023-01-18T00:04:21.922Z,1075.7450
2023-01-18T00:04:32.995Z,1073.1510
2023-01-18T00:04:44.107Z,1076.6130
2023-01-18T00:04:55.274Z,1075.7450
2023-01-18T00:05:06.450Z,1075.7450
2023-01-18T00:05:17.668Z,1073.1510
2023-01-18T00:05:28.811Z,1074.8790
2023-01-18T00:05:40.044Z,1075.7450
2023-01-18T00:05:51.202Z,1074.8790
2023-01-18T00:06:02.408Z,1076.6130
2023-01-18T00:06:13.641Z,1074.0140
2023-01-18T00:06:24.684Z,1075.7450
2023-01-18T00:06:35.738Z,1081.8480
2023-01-18T00:06:47.019Z,1074.0140
2023-01-18T00:06:58.081Z,1077.4821
2023-01-18T00:07:09.131Z,1071.4290
2023-01-18T00:07:20.177Z,1074.8790
2023-01-18T00:07:31.371Z,1076.6130
2023-01-18T00:07:42.401Z,1080.9720
2023-01-18T00:07:53.459Z,1068.8550
2023-01-18T00:08:04.541Z,1075.7450
2023-01-18T00:08:15.692Z,1073.1510
2023-01-18T00:08:26.787Z,1077.4821
2023-01-18T00:08:37.931Z,1078.3521
2023-01-18T00:08:49.041Z,1076.6130
2023-01-18T00:09:00.341Z,1077.4821
2023-01-18T00:09:11.530Z,1077.4821
2023-01-18T00:09:22.721Z,1081.8480
2023-01-18T00:09:33.770Z,1074.8790
2023-01-18T00:09:44.811Z,1074.0140
2023-01-18T00:09:55.898Z,1076.6130
2023-01-18T00:10:06.957Z,1083.6040
2023-01-18T00:10:18.081Z,1077.4821
2023-01-18T00:10:29.153Z,1077.4821
2023-01-18T00:10:40.212Z,1075.7450
2023-01-18T00:10:51.362Z,1078.3521
2023-01-18T00:11:02.416Z,1074.0140
2023-01-18T00:11:13.588Z,1075.7450
2023-01-18T00:11:24.750Z,1080.0970
2023-01-18T00:11:35.884Z,1074.8790
2023-01-18T00:11:47.041Z,1074.8790
2023-01-18T00:11:58.251Z,1081.8480
2023-01-18T00:12:09.451Z,1082.7250
2023-01-18T00:12:20.641Z,1075.7450
2023-01-18T00:12:31.841Z,1074.8790
2023-01-18T00:12:43.047Z,1078.3521
2023-01-18T00:12:54.510Z,1078.3521
2023-01-18T00:13:05.803Z,1080.9720
2023-01-18T00:13:16.978Z,1076.6130
2023-01-18T00:13:28.165Z,1081.8480
2023-01-18T00:13:39.374Z,1078.3521
2023-01-18T00:13:50.568Z,1088.0200
2023-01-18T00:14:01.627Z,1076.6130
2023-01-18T00:14:12.691Z,1086.2490
2023-01-18T00:14:23.848Z,1083.6040
2023-01-18T00:14:34.911Z,1083.6040
2023-01-18T00:14:45.981Z,1082.7250
2023-01-18T00:14:57.122Z,1083.6040
2023-01-18T00:15:08.194Z,1083.6040
2023-01-18T00:15:19.241Z,1089.7960
2023-01-18T00:15:30.418Z,1090.6860
2023-01-18T00:15:41.639Z,1086.2490
2023-01-18T00:15:52.815Z,1090.6860
2023-01-18T00:16:04.063Z,1092.4709
2023-01-18T00:16:15.133Z,1085.3660
2023-01-18T00:16:26.217Z,1089.7960
2023-01-18T00:16:37.313Z,1092.4709
2023-01-18T00:16:48.489Z,1088.0200
2023-01-18T00:16:59.687Z,1092.4709
2023-01-18T00:17:10.882Z,1092.4709
2023-01-18T00:17:22.091Z,1096.0590
2023-01-18T00:17:33.157Z,1093.3660
2023-01-18T00:17:44.223Z,1094.2620
2023-01-18T00:17:55.373Z,1096.9600
2023-01-18T00:18:06.567Z,1096.9600
2023-01-18T00:18:17.768Z,1097.8621
2023-01-18T00:18:28.971Z,1099.6710
2023-01-18T00:18:40.166Z,1106.9650
2023-01-18T00:18:51.369Z,1098.7650
2023-01-18T00:19:02.575Z,1098.7650
2023-01-18T00:19:13.770Z,1097.8621
2023-01-18T00:19:24.873Z,1105.1320
2023-01-18T00:19:35.986Z,1109.7260
2023-01-18T00:19:47.041Z,1103.3060
2023-01-18T00:19:58.258Z,1105.1320
2023-01-18T00:20:09.444Z,1106.0480
2023-01-18T00:20:20.649Z,1115.2880
2023-01-18T00:20:31.843Z,1108.8040
2023-01-18T00:20:43.161Z,1108.8040
2023-01-18T00:20:54.244Z,1106.0480
2023-01-18T00:21:05.451Z,1107.8840
2023-01-18T00:21:16.668Z,1116.2209
2023-01-18T00:21:27.869Z,1112.5000
2023-01-18T00:21:39.209Z,1113.4280
2023-01-18T00:21:50.335Z,1116.2209
2023-01-18T00:22:01.514Z,1117.1550
2023-01-18T00:22:12.596Z,1121.8490
2023-01-18T00:22:23.846Z,1121.8490
2023-01-18T00:22:35.050Z,1119.9659
2023-01-18T00:22:46.257Z,1121.8490
2023-01-18T00:22:57.871Z,1129.4420
2023-01-18T00:23:09.303Z,1131.3560
2023-01-18T00:23:20.352Z,1125.6320
2023-01-18T00:23:31.427Z,1128.4871
2023-01-18T00:23:42.568Z,1139.0790
2023-01-18T00:23:53.605Z,1131.3560
2023-01-18T00:24:04.657Z,1133.2770
2023-01-18T00:24:15.847Z,1133.2770
2023-01-18T00:24:26.872Z,1137.1379
2023-01-18T00:24:37.937Z,1141.0260
2023-01-18T00:24:49.158Z,1135.2040
2023-01-18T00:25:00.322Z,1142.9790
2023-01-18T00:25:11.441Z,1142.9790
2023-01-18T00:25:22.609Z,1147.8929
2023-01-18T00:25:33.754Z,1146.9070
2023-01-18T00:25:44.912Z,1148.8810
2023-01-18T00:25:56.021Z,1148.8810
2023-01-18T00:26:07.249Z,1151.8550
2023-01-18T00:26:18.412Z,1148.8810
2023-01-18T00:26:29.442Z,1149.8710
2023-01-18T00:26:40.495Z,1146.9070
2023-01-18T00:26:51.682Z,1152.8500
2023-01-18T00:27:02.725Z,1150.8621
2023-01-18T00:27:13.771Z,1150.8621
2023-01-18T00:27:24.961Z,1155.8440
2023-01-18T00:27:36.166Z,1153.8459
2023-01-18T00:27:47.362Z,1155.8440
2023-01-18T00:27:58.564Z,1158.8540
2023-01-18T00:28:09.780Z,1156.8459
2023-01-18T00:28:20.982Z,1162.8920
2023-01-18T00:28:32.161Z,1161.8800
2023-01-18T00:28:43.231Z,1169.0020
2023-01-18T00:28:54.392Z,1169.0020
2023-01-18T00:29:05.461Z,1167.9790
2023-01-18T00:29:16.581Z,1177.2490
2023-01-18T00:29:27.850Z,1167.9790
2023-01-18T00:29:39.057Z,1171.0530
2023-01-18T00:29:50.268Z,1176.2111
2023-01-18T00:30:01.493Z,1174.1420
2023-01-18T00:30:12.637Z,1175.1760
2023-01-18T00:30:23.849Z,1173.1110
2023-01-18T00:30:34.941Z,1177.2490
2023-01-18T00:30:46.083Z,1178.2880
2023-01-18T00:30:57.134Z,1179.3290
2023-01-18T00:31:08.327Z,1176.2111
2023-01-18T00:31:19.476Z,1185.6130
2023-01-18T00:31:30.543Z,1180.3710
2023-01-18T00:31:41.617Z,1191.9640
2023-01-18T00:31:52.675Z,1185.6130
2023-01-18T00:32:03.723Z,1183.5110
2023-01-18T00:32:14.889Z,1186.6670
2023-01-18T00:32:26.082Z,1181.4160
2023-01-18T00:32:37.297Z,1189.8400
2023-01-18T00:32:48.488Z,1189.8400
2023-01-18T00:33:00.239Z,1189.8400
2023-01-18T00:33:11.562Z,1187.7220
2023-01-18T00:33:22.634Z,1187.7220
2023-01-18T00:33:33.712Z,1187.7220
2023-01-18T00:33:44.812Z,1194.0970
2023-01-18T00:33:56.002Z,1194.0970
2023-01-18T00:34:07.211Z,1196.2371
2023-01-18T00:34:18.407Z,1191.9640
2023-01-18T00:34:29.607Z,1191.9640
2023-01-18T00:34:40.722Z,1201.6200
2023-01-18T00:34:51.802Z,1199.4611
2023-01-18T00:35:02.897Z,1196.2371
2023-01-18T00:35:14.088Z,1202.7030
2023-01-18T00:35:25.152Z,1199.4611
2023-01-18T00:35:36.203Z,1200.5400
2023-01-18T00:35:47.282Z,1199.4611
2023-01-18T00:35:58.427Z,1202.7030
2023-01-18T00:36:09.564Z,1209.2390
2023-01-18T00:36:20.645Z,1209.2390
2023-01-18T00:36:31.701Z,1209.2390
2023-01-18T00:36:42.782Z,1202.7030
2023-01-18T00:36:53.945Z,1207.0520
2023-01-18T00:37:04.973Z,1209.2390
2023-01-18T00:37:16.049Z,1210.3350
2023-01-18T00:37:27.201Z,1211.4340
2023-01-18T00:37:38.412Z,1211.4340
2023-01-18T00:37:49.609Z,1212.5341
2023-01-18T00:38:00.810Z,1215.8470
2023-01-18T00:38:12.002Z,1216.9550
2023-01-18T00:38:23.201Z,1219.1780
2023-01-18T00:38:34.436Z,1216.9550
2023-01-18T00:38:45.616Z,1214.7410
2023-01-18T00:38:56.661Z,1215.8470
2023-01-18T00:39:07.790Z,1231.5500
2023-01-18T00:39:18.891Z,1222.5270
2023-01-18T00:39:30.081Z,1222.5270
2023-01-18T00:39:41.292Z,1218.0660
2023-01-18T00:39:52.327Z,1222.5270
2023-01-18T00:40:03.377Z,1224.7710
2023-01-18T00:40:14.579Z,1228.1510
2023-01-18T00:40:25.761Z,1227.0220
2023-01-18T00:40:36.963Z,1223.6479
2023-01-18T00:40:48.280Z,1231.5500
2023-01-18T00:40:59.363Z,1230.4150
2023-01-18T00:41:10.587Z,1223.6479
2023-01-18T00:41:21.674Z,1232.6870
2023-01-18T00:41:32.731Z,1231.5500
2023-01-18T00:41:43.841Z,1225.8950
2023-01-18T00:41:54.889Z,1227.0220
2023-01-18T00:42:05.951Z,1229.2820
2023-01-18T00:42:17.152Z,1231.5500
2023-01-18T00:42:28.218Z,1231.5500
2023-01-18T00:42:39.260Z,1236.1110
2023-01-18T00:42:50.408Z,1237.2570
2023-01-18T00:43:01.493Z,1245.3361
2023-01-18T00:43:12.542Z,1239.5540
2023-01-18T00:43:23.681Z,1243.0170
2023-01-18T00:43:34.723Z,1244.1750
2023-01-18T00:43:45.779Z,1250.0000
2023-01-18T00:43:56.961Z,1246.4990
2023-01-18T00:44:08.011Z,1238.4041
2023-01-18T00:44:19.086Z,1247.6639
2023-01-18T00:44:30.252Z,1239.5540
2023-01-18T00:44:41.443Z,1243.0170
2023-01-18T00:44:52.498Z,1250.0000
2023-01-18T00:45:03.558Z,1244.1750
2023-01-18T00:45:14.603Z,1245.3361
2023-01-18T00:45:25.747Z,1250.0000
2023-01-18T00:45:36.844Z,1257.0620
2023-01-18T00:45:47.947Z,1252.3450
2023-01-18T00:45:59.061Z,1250.0000
2023-01-18T00:46:10.157Z,1253.5210
2023-01-18T00:46:21.258Z,1253.5210
2023-01-18T00:46:32.481Z,1250.0000
2023-01-18T00:46:43.531Z,1261.8149
2023-01-18T00:46:54.602Z,1255.8800
2023-01-18T00:47:06.014Z,1261.8149
2023-01-18T00:47:17.177Z,1257.0620
2023-01-18T00:47:28.344Z,1263.0090
2023-01-18T00:47:39.461Z,1261.8149
2023-01-18T00:47:50.560Z,1259.4340
2023-01-18T00:48:01.762Z,1266.6030
2023-01-18T00:48:12.962Z,1257.0620
2023-01-18T00:48:24.161Z,1265.4030
2023-01-18T00:48:35.362Z,1264.2050
2023-01-18T00:48:46.568Z,1260.6230
2023-01-18T00:48:57.611Z,1267.8060
2023-01-18T00:49:08.733Z,1273.8550
2023-01-18T00:49:19.883Z,1269.0110
2023-01-18T00:49:30.987Z,1266.6030
2023-01-18T00:49:42.101Z,1269.0110
2023-01-18T00:49:53.190Z,1270.2190
2023-01-18T00:50:04.322Z,1267.8060
2023-01-18T00:50:15.522Z,1267.8060
2023-01-18T00:50:26.733Z,1265.4030
2023-01-18T00:50:37.772Z,1272.6410
2023-01-18T00:50:48.848Z,1270.2190
2023-01-18T00:51:00.044Z,1273.8550
2023-01-18T00:51:11.210Z,1275.0720
2023-01-18T00:51:22.424Z,1277.5120
2023-01-18T00:51:33.611Z,1269.0110
2023-01-18T00:51:44.821Z,1271.4290
2023-01-18T00:51:58.717Z,1278.7360
2023-01-18T00:52:10.133Z,1269.0110
2023-01-18T00:52:21.281Z,1277.5120
2023-01-18T00:52:32.490Z,1273.8550
2023-01-18T00:52:43.693Z,1271.4290
2023-01-18T00:52:55.234Z,1278.7360
2023-01-18T00:53:06.482Z,1278.7360
2023-01-18T00:53:17.618Z,1279.9620
2023-01-18T00:53:28.807Z,1282.4210
2023-01-18T00:53:40.013Z,1281.1899
2023-01-18T00:53:51.220Z,1282.4210
2023-01-18T00:54:02.409Z,1282.4210
2023-01-18T00:54:13.622Z,1284.8890
2023-01-18T00:54:24.802Z,1281.1899
2023-01-18T00:54:36.010Z,1276.2910
2023-01-18T00:54:47.204Z,1276.2910
2023-01-18T00:54:58.409Z,1284.8890
2023-01-18T00:55:09.447Z,1281.1899
2023-01-18T00:55:20.493Z,1283.6541
2023-01-18T00:55:31.692Z,1286.1270
2023-01-18T00:55:42.891Z,1283.6541
2023-01-18T00:55:54.093Z,1282.4210
2023-01-18T00:56:05.327Z,1283.6541
2023-01-18T00:56:16.481Z,1288.6100
2023-01-18T00:56:27.682Z,1279.9620
2023-01-18T00:56:38.891Z,1288.6100
2023-01-18T00:56:50.083Z,1288.6100
2023-01-18T00:57:01.285Z,1288.6100
2023-01-18T00:57:12.489Z,1286.1270
2023-01-18T00:57:23.532Z,1292.3521
2023-01-18T00:57:34.576Z,1288.6100
2023-01-18T00:57:45.780Z,1286.1270
2023-01-18T00:57:56.973Z,1291.1030
2023-01-18T00:58:08.163Z,1286.1270
2023-01-18T00:58:19.213Z,1297.3760
2023-01-18T00:58:30.282Z,1291.1030
2023-01-18T00:58:41.449Z,1296.1169
2023-01-18T00:58:52.481Z,1293.6050
2023-01-18T00:59:03.521Z,1296.1169
2023-01-18T00:59:14.722Z,1301.1700
2023-01-18T00:59:25.767Z,1294.8590
2023-01-18T00:59:36.801Z,1296.1169
2023-01-18T00:59:48.033Z,1294.8590
2023-01-18T00:59:59.073Z,1298.6379
2023-01-18T01:00:10.141Z,1301.1700
2023-01-18T01:00:21.281Z,1296.1169
2023-01-18T01:00:32.345Z,1291.1030
2023-01-18T01:00:43.498Z,1301.1700
2023-01-18T01:00:54.691Z,1296.1169
2023-01-18T01:01:05.890Z,1289.8550
2023-01-18T01:01:17.182Z,1303.7111
2023-01-18T01:01:28.642Z,1296.1169
2023-01-18T01:01:39.931Z,1302.4390
2023-01-18T01:01:51.451Z,1303.7111
2023-01-18T01:02:02.959Z,1299.9030
2023-01-18T01:02:14.455Z,1302.4390
2023-01-18T01:02:25.651Z,1293.6050
2023-01-18T01:02:36.730Z,1302.4390
2023-01-18T01:02:47.902Z,1298.6379
2023-01-18T01:02:59.547Z,1301.1700
2023-01-18T01:03:10.934Z,1297.3760
2023-01-18T01:03:22.009Z,1298.6379
2023-01-18T01:03:33.085Z,1298.6379
2023-01-18T01:03:44.162Z,1303.7111
2023-01-18T01:03:55.211Z,1306.2620
2023-01-18T01:04:06.295Z,1303.7111
2023-01-18T01:04:17.442Z,1303.7111
2023-01-18T01:04:28.482Z,1316.5680
2023-01-18T01:04:39.531Z,1307.5420
2023-01-18T01:04:50.729Z,1296.1169
2023-01-18T01:05:01.930Z,1294.8590
2023-01-18T01:05:13.124Z,1306.2620
2023-01-18T01:05:24.323Z,1308.8240
2023-01-18T01:05:35.438Z,1303.7111
2023-01-18T01:05:46.503Z,1308.8240
2023-01-18T01:05:57.621Z,1306.2620
2023-01-18T01:06:08.840Z,1311.3950
2023-01-18T01:06:19.887Z,1311.3950
2023-01-18T01:06:30.941Z,1306.2620
2023-01-18T01:06:41.991Z,1313.9760
2023-01-18T01:06:53.061Z,1312.6840
2023-01-18T01:07:04.188Z,1313.9760
2023-01-18T01:07:15.362Z,1311.3950
2023-01-18T01:07:26.571Z,1311.3950
2023-01-18T01:07:37.792Z,1311.3950
2023-01-18T01:07:48.970Z,1311.3950
2023-01-18T01:08:00.167Z,1316.5680
2023-01-18T01:08:11.368Z,1320.4750
2023-01-18T01:08:22.411Z,1320.4750
2023-01-18T01:08:33.459Z,1311.3950
2023-01-18T01:08:44.642Z,1312.6840
2023-01-18T01:08:55.841Z,1313.9760
2023-01-18T01:09:06.895Z,1313.9760
2023-01-18T01:09:17.942Z,1319.1700
2023-01-18T01:09:29.133Z,1320.4750
2023-01-18T01:09:40.200Z,1316.5680
2023-01-18T01:09:51.237Z,1321.7820
2023-01-18T01:10:02.417Z,1311.3950
2023-01-18T01:10:13.601Z,1319.1700
2023-01-18T01:10:24.812Z,1319.1700
2023-01-18T01:10:36.004Z,1319.1700
2023-01-18T01:10:47.223Z,1320.4750
2023-01-18T01:10:58.406Z,1324.4050
2023-01-18T01:11:09.647Z,1327.0380
2023-01-18T01:11:20.810Z,1324.4050
2023-01-18T01:11:32.014Z,1319.1700
2023-01-18T01:11:43.054Z,1325.7200
2023-01-18T01:11:54.123Z,1328.3580
2023-01-18T01:12:05.299Z,1321.7820
2023-01-18T01:12:16.481Z,1332.3350
2023-01-18T01:12:27.546Z,1321.7820
2023-01-18T01:12:38.757Z,1324.4050
2023-01-18T01:12:49.861Z,1331.0070
2023-01-18T01:13:01.087Z,1332.3350
2023-01-18T01:13:12.261Z,1324.4050
2023-01-18T01:13:23.402Z,1321.7820
2023-01-18T01:13:34.566Z,1324.4050
2023-01-18T01:13:45.743Z,1329.6810
2023-01-18T01:13:56.942Z,1331.0070
2023-01-18T01:14:08.084Z,1328.3580
2023-01-18T01:14:19.226Z,1333.6660
2023-01-18T01:14:30.305Z,1329.6810
2023-01-18T01:14:41.505Z,1329.6810
2023-01-18T01:14:52.569Z,1331.0070
2023-01-18T01:15:03.646Z,1324.4050
2023-01-18T01:15:14.670Z,1329.6810
2023-01-18T01:15:25.736Z,1333.6660
2023-01-18T01:15:36.791Z,1324.4050
2023-01-18T01:15:47.853Z,1337.6750
2023-01-18T01:15:58.944Z,1335.0000
2023-01-18T01:16:10.264Z,1335.0000
2023-01-18T01:16:21.385Z,1332.3350
2023-01-18T01:16:32.588Z,1333.6660
2023-01-18T01:16:43.835Z,1328.3580
2023-01-18T01:16:55.004Z,1335.0000
2023-01-18T01:17:06.146Z,1336.3361
2023-01-18T01:17:17.223Z,1339.0170
2023-01-18T01:17:28.294Z,1341.7090
2023-01-18T01:17:39.460Z,1332.3350
2023-01-18T01:17:50.677Z,1335.0000
2023-01-18T01:18:01.844Z,1340.3610
2023-01-18T01:18:13.044Z,1337.6750
2023-01-18T01:18:24.252Z,1344.4110
2023-01-18T01:18:35.461Z,1340.3610
2023-01-18T01:18:46.651Z,1341.7090
2023-01-18T01:18:57.877Z,1341.7090
2023-01-18T01:19:09.025Z,1337.6750
2023-01-18T01:19:20.088Z,1339.0170
2023-01-18T01:19:31.426Z,1340.3610
2023-01-18T01:19:42.631Z,1343.0580
2023-01-18T01:19:53.823Z,1343.0580
2023-01-18T01:20:04.869Z,1347.1240
2023-01-18T01:20:15.923Z,1344.4110
2023-01-18T01:20:26.978Z,1339.0170
2023-01-18T01:20:38.036Z,1349.8480
2023-01-18T01:20:49.210Z,1343.0580
2023-01-18T01:21:00.385Z,1347.1240
2023-01-18T01:21:11.634Z,1353.9550
2023-01-18T01:21:22.803Z,1356.7070
2023-01-18T01:21:33.999Z,1345.7660
2023-01-18T01:21:45.189Z,1356.7070
2023-01-18T01:21:56.386Z,1343.0580
2023-01-18T01:22:07.617Z,1353.9550
2023-01-18T01:22:18.803Z,1349.8480
2023-01-18T01:22:29.878Z,1345.7660
2023-01-18T01:22:40.944Z,1349.8480
2023-01-18T01:22:52.065Z,1352.5840
2023-01-18T01:23:03.272Z,1348.4850
2023-01-18T01:23:14.472Z,1366.4280
2023-01-18T01:23:25.529Z,1345.7660
2023-01-18T01:23:36.613Z,1358.0870
2023-01-18T01:23:47.785Z,1351.2150
2023-01-18T01:23:58.971Z,1365.0310
2023-01-18T01:24:10.178Z,1363.6360
2023-01-18T01:24:21.349Z,1358.0870
2023-01-18T01:24:32.552Z,1365.0310
2023-01-18T01:24:43.614Z,1360.8560
2023-01-18T01:24:54.683Z,1351.2150
2023-01-18T01:25:05.820Z,1353.9550
2023-01-18T01:25:17.043Z,1365.0310
2023-01-18T01:25:28.117Z,1365.0310
2023-01-18T01:25:39.153Z,1365.0310
2023-01-18T01:25:50.320Z,1360.8560
2023-01-18T01:26:01.524Z,1365.0310
2023-01-18T01:26:12.590Z,1359.4700
2023-01-18T01:26:23.660Z,1363.6360
2023-01-18T01:26:34.799Z,1367.8280
2023-01-18T01:26:45.990Z,1366.4280
2023-01-18T01:26:57.183Z,1363.6360
2023-01-18T01:27:08.402Z,1366.4280
2023-01-18T01:27:19.547Z,1360.8560
2023-01-18T01:27:30.904Z,1365.0310
2023-01-18T01:27:42.352Z,1365.0310
2023-01-18T01:27:53.509Z,1369.2310
2023-01-18T01:28:04.706Z,1369.2310
2023-01-18T01:28:15.773Z,1369.2310
2023-01-18T01:28:26.830Z,1365.0310
2023-01-18T01:28:37.990Z,1370.6370
2023-01-18T01:28:49.029Z,1374.8710
2023-01-18T01:29:00.109Z,1370.6370
2023-01-18T01:29:11.281Z,1367.8280
2023-01-18T01:29:22.486Z,1367.8280
2023-01-18T01:29:33.662Z,1370.6370
2023-01-18T01:29:44.715Z,1373.4570
2023-01-18T01:29:55.757Z,1367.8280
2023-01-18T01:30:06.823Z,1374.8710
2023-01-18T01:30:17.913Z,1377.7090
2023-01-18T01:30:29.079Z,1376.2889
2023-01-18T01:30:40.138Z,1367.8280
2023-01-18T01:30:51.514Z,1379.1320
2023-01-18T01:31:02.821Z,1367.8280
2023-01-18T01:31:13.928Z,1376.2889
2023-01-18T01:31:25.031Z,1374.8710
2023-01-18T01:31:36.264Z,1377.7090
2023-01-18T01:31:47.437Z,1384.8550
2023-01-18T01:31:58.689Z,1370.6370
2023-01-18T01:32:09.852Z,1379.1320
2023-01-18T01:32:21.024Z,1374.8710
2023-01-18T01:32:32.083Z,1373.4570
2023-01-18T01:32:43.154Z,1380.5580
2023-01-18T01:32:54.615Z,1373.4570
2023-01-18T01:33:05.875Z,1376.2889
2023-01-18T01:33:17.028Z,1377.7090
2023-01-18T01:33:28.233Z,1379.1320
2023-01-18T01:33:39.268Z,1381.9880
2023-01-18T01:33:50.325Z,1381.9880
2023-01-18T01:34:01.524Z,1379.1320
2023-01-18T01:34:12.704Z,1379.1320
2023-01-18T01:34:23.938Z,1377.7090
2023-01-18T01:34:34.986Z,1374.8710
2023-01-18T01:34:46.068Z,1383.4200
2023-01-18T01:34:57.183Z,1381.9880
2023-01-18T01:35:08.224Z,1381.9880
2023-01-18T01:35:19.273Z,1384.8550
2023-01-18T01:35:30.464Z,1379.1320
2023-01-18T01:35:41.533Z,1376.2889
2023-01-18T01:35:52.612Z,1389.1780
2023-01-18T01:36:03.750Z,1381.9880
2023-01-18T01:36:14.824Z,1383.4200
2023-01-18T01:36:25.900Z,1381.9880
2023-01-18T01:36:37.024Z,1381.9880
2023-01-18T01:36:48.230Z,1387.7340
2023-01-18T01:36:59.467Z,1393.5280
2023-01-18T01:37:10.654Z,1387.7340
2023-01-18T01:37:21.828Z,1381.9880
2023-01-18T01:37:33.032Z,1387.7340
2023-01-18T01:37:44.075Z,1384.8550
2023-01-18T01:37:55.146Z,1386.2930
2023-01-18T01:38:06.191Z,1384.8550
2023-01-18T01:38:17.254Z,1389.1780
2023-01-18T01:38:28.390Z,1393.5280
2023-01-18T01:38:39.419Z,1394.9840
2023-01-18T01:38:50.468Z,1390.6250
2023-01-18T01:39:01.531Z,1386.2930
2023-01-18T01:39:12.595Z,1392.0750
2023-01-18T01:39:23.750Z,1393.5280
2023-01-18T01:39:34.943Z,1389.1780
2023-01-18T01:39:46.152Z,1387.7340
2023-01-18T01:39:57.347Z,1402.3110
2023-01-18T01:40:08.554Z,1389.1780
2023-01-18T01:40:19.749Z,1389.1780
2023-01-18T01:40:30.815Z,1396.4440
2023-01-18T01:40:41.866Z,1392.0750
2023-01-18T01:40:53.031Z,1393.5280
2023-01-18T01:41:04.223Z,1397.9060
2023-01-18T01:41:15.517Z,1392.0750
2023-01-18T01:41:26.633Z,1390.6250
2023-01-18T01:41:37.851Z,1396.4440
2023-01-18T01:41:49.084Z,1390.6250
2023-01-18T01:42:00.295Z,1393.5280
2023-01-18T01:42:11.493Z,1396.4440
2023-01-18T01:42:22.675Z,1393.5280
2023-01-18T01:42:34.023Z,1392.0750
2023-01-18T01:42:45.344Z,1396.4440
2023-01-18T01:42:56.900Z,1396.4440
2023-01-18T01:43:08.114Z,1393.5280
2023-01-18T01:43:19.265Z,1399.3710
2023-01-18T01:43:30.329Z,1396.4440
2023-01-18T01:43:41.396Z,1403.7860
2023-01-18T01:43:52.457Z,1390.6250
2023-01-18T01:44:03.512Z,1400.8390
2023-01-18T01:44:14.623Z,1406.7440
2023-01-18T01:44:25.824Z,1405.2629
2023-01-18T01:44:36.883Z,1396.4440
2023-01-18T01:44:47.954Z,1397.9060
2023-01-18T01:44:59.106Z,1393.5280
2023-01-18T01:45:10.305Z,1399.3710
2023-01-18T01:45:21.510Z,1397.9060
2023-01-18T01:45:32.775Z,1399.3710
2023-01-18T01:45:43.832Z,1396.4440
2023-01-18T01:45:54.952Z,1400.8390
2023-01-18T01:46:06.039Z,1397.9060
2023-01-18T01:46:17.364Z,1393.5280
2023-01-18T01:46:28.492Z,1399.3710
2023-01-18T01:46:39.549Z,1402.3110
2023-01-18T01:46:50.618Z,1405.2629
2023-01-18T01:47:01.684Z,1393.5280
2023-01-18T01:47:12.717Z,1390.6250
2023-01-18T01:47:23.786Z,1399.3710
2023-01-18T01:47:34.844Z,1403.7860
2023-01-18T01:47:45.903Z,1402.3110
2023-01-18T01:47:56.950Z,1408.2280
2023-01-18T01:48:08.015Z,1405.2629
2023-01-18T01:48:19.111Z,1396.4440
2023-01-18T01:48:30.145Z,1408.2280
2023-01-18T01:48:41.194Z,1408.2280
2023-01-18T01:48:52.398Z,1402.3110
2023-01-18T01:49:03.423Z,1408.2280
2023-01-18T01:49:14.470Z,1409.7150
2023-01-18T01:49:25.664Z,1408.2280
2023-01-18T01:49:36.870Z,1405.2629
2023-01-18T01:49:48.121Z,1408.2280
2023-01-18T01:49:59.277Z,1405.2629
2023-01-18T01:50:10.477Z,1403.7860
2023-01-18T01:50:21.665Z,1411.2050
2023-01-18T01:50:32.864Z,1405.2629
2023-01-18T01:50:44.070Z,1411.2050
2023-01-18T01:50:55.264Z,1409.7150
2023-01-18T01:51:06.316Z,1402.3110
2023-01-18T01:51:17.425Z,1414.1949
2023-01-18T01:51:28.551Z,1423.2410
2023-01-18T01:51:39.750Z,1414.1949
2023-01-18T01:51:50.955Z,1408.2280
2023-01-18T01:52:02.147Z,1412.6980
2023-01-18T01:52:13.401Z,1414.1949
2023-01-18T01:52:24.547Z,1408.2280
2023-01-18T01:52:35.743Z,1403.7860
2023-01-18T01:52:46.954Z,1411.2050
2023-01-18T01:52:58.428Z,1411.2050
2023-01-18T01:53:09.714Z,1405.2629
2023-01-18T01:53:20.781Z,1405.2629
2023-01-18T01:53:31.843Z,1420.2130
2023-01-18T01:53:42.943Z,1414.1949
2023-01-18T01:53:54.144Z,1411.2050
2023-01-18T01:54:05.191Z,1412.6980
2023-01-18T01:54:16.235Z,1421.7250
2023-01-18T01:54:27.435Z,1408.2280
2023-01-18T01:54:38.631Z,1414.1949
2023-01-18T01:54:49.830Z,1418.7040
2023-01-18T01:55:00.866Z,1411.2050
2023-01-18T01:55:11.919Z,1414.1949
2023-01-18T01:55:23.006Z,1418.7040
2023-01-18T01:55:34.061Z,1417.1970
2023-01-18T01:55:45.191Z,1420.2130
2023-01-18T01:55:56.232Z,1418.7040
2023-01-18T01:56:07.319Z,1418.7040
2023-01-18T01:56:18.374Z,1423.2410
2023-01-18T01:56:29.459Z,1423.2410
2023-01-18T01:56:40.583Z,1417.1970
2023-01-18T01:56:51.757Z,1421.7250
2023-01-18T01:57:03.036Z,1423.2410
2023-01-18T01:57:14.118Z,1417.1970
2023-01-18T01:57:25.219Z,1417.1970
2023-01-18T01:57:36.364Z,1423.2410
2023-01-18T01:57:47.471Z,1417.1970
2023-01-18T01:57:58.678Z,1424.7600
2023-01-18T01:58:09.854Z,1420.2130
2023-01-18T01:58:21.113Z,1426.2820
2023-01-18T01:58:32.344Z,1426.2820
2023-01-18T01:58:43.424Z,1426.2820
2023-01-18T01:58:54.637Z,1421.7250
2023-01-18T01:59:05.844Z,1423.2410
2023-01-18T01:59:17.040Z,1426.2820
2023-01-18T01:59:28.227Z,1423.2410
2023-01-18T01:59:39.282Z,1423.2410
2023-01-18T01:59:50.315Z,1421.7250
2023-01-18T02:00:01.541Z,1420.2130
2023-01-18T02:00:12.711Z,1424.7600
2023-01-18T02:00:23.911Z,1418.7040
2023-01-18T02:00:35.130Z,1418.7040
2023-01-18T02:00:46.279Z,1421.7250
2023-01-18T02:00:57.610Z,1417.1970
2023-01-18T02:01:08.864Z,1423.2410
2023-01-18T02:01:20.097Z,1423.2410
2023-01-18T02:01:31.533Z,1426.2820
2023-01-18T02:01:42.721Z,1424.7600
2023-01-18T02:01:53.975Z,1417.1970
2023-01-18T02:02:05.265Z,1426.2820
2023-01-18T02:02:16.368Z,1423.2410
2023-01-18T02:02:27.476Z,1426.2820
2023-01-18T02:02:38.658Z,1432.4030
2023-01-18T02:02:49.887Z,1420.2130
2023-01-18T02:03:01.503Z,1432.4030
2023-01-18T02:03:12.904Z,1423.2410
2023-01-18T02:03:24.065Z,1426.2820
2023-01-18T02:03:35.110Z,1423.2410
2023-01-18T02:03:46.150Z,1423.2410
2023-01-18T02:03:57.354Z,1418.7040
2023-01-18T02:04:08.551Z,1426.2820
2023-01-18T02:04:19.744Z,1427.8080
2023-01-18T02:04:30.956Z,1426.2820
2023-01-18T02:04:42.145Z,1420.2130
2023-01-18T02:04:53.358Z,1421.7250
2023-01-18T02:05:04.390Z,1426.2820
2023-01-18T02:05:15.446Z,1427.8080
2023-01-18T02:05:26.516Z,1429.3361
2023-01-18T02:05:37.577Z,1423.2410
2023-01-18T02:05:48.629Z,1423.2410
2023-01-18T02:05:59.688Z,1423.2410
2023-01-18T02:06:10.792Z,1430.8680
2023-01-18T02:06:21.873Z,1426.2820
2023-01-18T02:06:32.945Z,1427.8080
2023-01-18T02:06:44.070Z,1429.3361
2023-01-18T02:06:55.113Z,1429.3361
2023-01-18T02:07:06.174Z,1432.4030
2023-01-18T02:07:17.291Z,1432.4030